Terminal Aerodrome Forecast
Issued by NWS

Home | Current Version | Previous Version | Text Only | Print | Product List | Glossary On
Versions: 1 2 3 4 5 6 7 8 9 10 11 12 13 14 15 16 17 18 19 20 21 22 23 24
000
FTUS46 KOTX 161732
TAFSFF
TAF
KSFF 161732Z 1618/1718 VRB04KT P6SM FEW150 BKN200
     FM162200 24005KT P6SM BKN200
     FM170300 04002KT P6SM BKN200
     FM171200 VRB03KT P6SM SCT130 BKN200=

USA.gov is the U.S. government's official web portal to all federal, state and local government web resources and services.